createdAt,value
2019-04-28T00:00:08.393Z,2.83
2019-04-28T00:02:15.555Z,2.30
2019-04-28T00:04:21.507Z,2.60
2019-04-28T00:06:26.682Z,2.50
2019-04-28T00:08:32.414Z,2.37
2019-04-28T00:10:37.929Z,2.23
2019-04-28T00:12:42.939Z,2.63
2019-04-28T00:14:48.382Z,2.43
2019-04-28T00:16:54.234Z,2.50
2019-04-28T00:19:01.135Z,2.53
2019-04-28T00:21:34.599Z,2.40
2019-04-28T00:23:56.279Z,2.40
2019-04-28T00:26:24.766Z,2.50
2019-04-28T00:28:31.150Z,2.33
2019-04-28T00:30:37.178Z,2.93
2019-04-28T00:32:42.679Z,2.80
2019-04-28T00:34:51.325Z,2.23
2019-04-28T00:37:01.668Z,2.50
2019-04-28T00:39:08.157Z,2.40
2019-04-28T00:41:13.716Z,2.87
2019-04-28T00:43:19.138Z,2.50
2019-04-28T00:45:24.317Z,2.53
2019-04-28T00:47:31.156Z,2.57
2019-04-28T00:49:54.453Z,2.60
2019-04-28T00:52:00.689Z,2.50
2019-04-28T00:54:06.962Z,2.60
2019-04-28T00:56:12.191Z,2.20
2019-04-28T00:58:17.177Z,2.73
2019-04-28T01:00:25.749Z,2.60
2019-04-28T01:02:41.318Z,2.60
2019-04-28T01:04:51.327Z,2.70
2019-04-28T01:06:56.552Z,2.47
2019-04-28T01:09:03.874Z,2.40
2019-04-28T01:11:09.154Z,2.33
2019-04-28T01:13:14.252Z,2.83
2019-04-28T01:15:29.830Z,2.50
2019-04-28T01:18:00.811Z,2.40
2019-04-28T01:20:09.756Z,2.60
2019-04-28T01:22:20.013Z,2.30
2019-04-28T01:24:26.218Z,2.63
2019-04-28T01:26:31.313Z,2.80
2019-04-28T01:28:36.739Z,1.93
2019-04-28T01:31:03.997Z,2.60
2019-04-28T01:33:16.152Z,2.50
2019-04-28T01:35:21.339Z,2.17
2019-04-28T01:37:26.678Z,2.13
2019-04-28T01:39:31.938Z,2.37
2019-04-28T01:41:37.270Z,2.17
2019-04-28T01:43:42.715Z,2.10
2019-04-28T01:45:47.835Z,2.20
2019-04-28T01:47:53.232Z,2.17
2019-04-28T01:50:01.768Z,2.00
2019-04-28T01:52:05.896Z,2.00
2019-04-28T01:54:11.699Z,2.50
2019-04-28T01:56:16.881Z,2.83
2019-04-28T01:58:21.966Z,2.03
2019-04-28T02:00:29.675Z,2.40
2019-04-28T02:02:36.993Z,2.37
2019-04-28T02:04:42.076Z,1.87
2019-04-28T02:06:47.194Z,2.20
2019-04-28T02:08:52.643Z,2.40
2019-04-28T02:11:00.008Z,1.93
2019-04-28T02:13:05.704Z,1.67
2019-04-28T02:15:11.211Z,2.00
2019-04-28T02:17:16.308Z,2.13
2019-04-28T02:19:21.816Z,1.67
2019-04-28T02:21:44.719Z,2.07
2019-04-28T02:23:51.459Z,2.10
2019-04-28T02:25:56.820Z,2.00
2019-04-28T02:28:02.935Z,2.20
2019-04-28T02:30:11.680Z,2.03
2019-04-28T02:32:16.983Z,2.10
2019-04-28T02:34:22.175Z,2.43
2019-04-28T02:36:27.659Z,2.00
2019-04-28T02:38:34.298Z,1.87
2019-04-28T02:40:40.806Z,2.03
2019-04-28T02:42:45.968Z,2.07
2019-04-28T02:44:51.881Z,2.33
2019-04-28T02:46:57.074Z,2.00
2019-04-28T02:49:03.061Z,1.93
2019-04-28T02:51:20.855Z,2.00
2019-04-28T02:53:30.932Z,1.87
2019-04-28T02:55:35.783Z,2.07
2019-04-28T02:57:41.298Z,2.00
2019-04-28T02:59:46.675Z,2.17
2019-04-28T03:01:51.778Z,2.47
2019-04-28T03:03:57.137Z,1.83
2019-04-28T03:06:02.754Z,1.73
2019-04-28T03:08:10.952Z,1.90
2019-04-28T03:10:15.617Z,1.60
2019-04-28T03:12:21.629Z,1.87
2019-04-28T03:14:27.092Z,1.70
2019-04-28T03:16:32.261Z,2.07
2019-04-28T03:18:38.006Z,1.53
2019-04-28T03:20:43.618Z,2.00
2019-04-28T03:22:50.987Z,1.73
2019-04-28T03:24:57.401Z,1.77
2019-04-28T03:27:31.061Z,1.73
2019-04-28T03:29:46.715Z,1.63
2019-04-28T03:32:28.514Z,1.50
2019-04-28T03:34:13.194Z,1.83
2019-04-28T03:36:23.155Z,1.83
2019-04-28T03:38:25.761Z,1.90
2019-04-28T03:40:33.649Z,1.70
2019-04-28T03:42:37.595Z,1.50
2019-04-28T03:44:43.703Z,1.53
2019-04-28T03:46:52.681Z,1.60
2019-04-28T03:49:00.482Z,1.27
2019-04-28T03:51:05.050Z,1.60
2019-04-28T03:53:11.203Z,1.77
2019-04-28T03:55:16.297Z,1.90
2019-04-28T03:57:22.104Z,1.80
2019-04-28T03:59:27.395Z,1.60
2019-04-28T04:01:32.355Z,1.77
2019-04-28T04:03:37.781Z,1.87
2019-04-28T04:05:42.909Z,1.40
2019-04-28T04:07:50.710Z,1.63
2019-04-28T04:10:07.678Z,2.10
2019-04-28T04:12:31.044Z,1.80
2019-04-28T04:14:50.613Z,1.73
2019-04-28T04:17:21.178Z,1.43
2019-04-28T04:19:26.350Z,1.70
2019-04-28T04:21:32.212Z,1.50
2019-04-28T04:23:37.655Z,1.40
2019-04-28T04:25:43.732Z,1.20
2019-04-28T04:27:50.191Z,1.73
2019-04-28T04:29:55.426Z,1.93
2019-04-28T04:32:11.614Z,1.43
2019-04-28T04:34:07.409Z,1.93
2019-04-28T04:36:12.595Z,1.40
2019-04-28T04:38:18.307Z,1.50
2019-04-28T04:40:23.471Z,1.57
2019-04-28T04:42:30.622Z,1.67
2019-04-28T04:44:40.587Z,2.23
2019-04-28T04:46:43.324Z,1.90
2019-04-28T04:48:50.736Z,1.93
2019-04-28T04:50:55.262Z,1.43
2019-04-28T04:53:02.657Z,1.80
2019-04-28T04:55:11.037Z,1.50
2019-04-28T04:57:15.366Z,1.77
2019-04-28T04:59:20.421Z,1.57
2019-04-28T05:01:34.991Z,1.53
2019-04-28T05:03:42.456Z,1.60
2019-04-28T05:05:47.958Z,1.30
2019-04-28T05:07:53.125Z,1.57
2019-04-28T05:09:59.546Z,1.50
2019-04-28T05:12:05.050Z,1.80
2019-04-28T05:14:12.095Z,1.47
2019-04-28T05:16:19.682Z,1.47
2019-04-28T05:18:24.542Z,1.57
2019-04-28T05:20:30.331Z,1.50
2019-04-28T05:22:39.971Z,1.90
2019-04-28T05:24:55.526Z,1.90
2019-04-28T05:27:00.905Z,1.30
2019-04-28T05:29:06.082Z,1.83
2019-04-28T05:31:17.430Z,1.73
2019-04-28T05:33:30.590Z,1.63
2019-04-28T05:35:35.787Z,1.40
2019-04-28T05:37:41.461Z,1.50
2019-04-28T05:39:46.732Z,1.50
2019-04-28T05:41:52.498Z,1.40
2019-04-28T05:43:59.563Z,1.77
2019-04-28T05:46:04.534Z,1.73
2019-04-28T05:48:11.329Z,1.60
2019-04-28T05:50:23.349Z,1.63
2019-04-28T05:52:40.359Z,1.70
2019-04-28T05:54:52.032Z,1.57
2019-04-28T05:57:20.660Z,1.50
2019-04-28T05:59:56.710Z,1.40
2019-04-28T06:02:10.592Z,1.30
2019-04-28T06:04:19.863Z,1.50
2019-04-28T06:06:30.267Z,1.60
2019-04-28T06:08:55.905Z,1.47
2019-04-28T06:11:02.565Z,1.77
2019-04-28T06:13:09.860Z,1.97
2019-04-28T06:15:15.014Z,1.87
2019-04-28T06:17:20.717Z,2.20
2019-04-28T06:19:25.757Z,1.70
2019-04-28T06:21:31.243Z,1.63
2019-04-28T06:23:36.536Z,2.10
2019-04-28T06:25:41.965Z,1.80
2019-04-28T06:27:47.199Z,2.17
2019-04-28T06:29:52.233Z,2.30
2019-04-28T06:31:57.721Z,2.27
2019-04-28T06:34:03.261Z,2.20
2019-04-28T06:36:08.952Z,2.60
2019-04-28T06:38:14.416Z,2.13
2019-04-28T06:42:26.766Z,2.10
2019-04-28T06:44:32.405Z,2.13
2019-04-28T06:46:37.893Z,2.50
2019-04-28T06:48:43.856Z,2.33
2019-04-28T06:50:49.039Z,2.23
2019-04-28T06:52:54.315Z,2.33
2019-04-28T06:54:59.680Z,3.07
2019-04-28T06:57:04.877Z,3.00
2019-04-28T06:59:09.965Z,3.27
2019-04-28T07:01:15.729Z,2.90
2019-04-28T07:03:23.214Z,3.47
2019-04-28T07:05:27.791Z,2.93
2019-04-28T07:07:32.959Z,4.20
2019-04-28T07:09:38.243Z,4.37
2019-04-28T07:11:43.633Z,4.30
2019-04-28T07:13:49.287Z,4.23
2019-04-28T07:15:54.467Z,4.20
2019-04-28T07:17:59.631Z,4.47
2019-04-28T07:20:25.218Z,4.20
2019-04-28T07:22:30.981Z,3.73
2019-04-28T07:24:36.186Z,3.77
2019-04-28T07:26:41.380Z,3.70
2019-04-28T07:28:46.521Z,4.07
2019-04-28T07:30:52.003Z,3.40
2019-04-28T07:32:57.499Z,3.37
2019-04-28T07:35:02.944Z,3.83
2019-04-28T07:37:08.602Z,3.60
2019-04-28T07:39:13.677Z,3.73
2019-04-28T07:41:19.228Z,3.90
2019-04-28T07:43:24.314Z,3.97
2019-04-28T07:45:29.828Z,3.60
2019-04-28T07:47:34.852Z,3.50
2019-04-28T07:49:39.973Z,4.30
2019-04-28T07:52:02.091Z,3.73
2019-04-28T07:54:10.103Z,3.97
2019-04-28T07:56:15.229Z,4.00
2019-04-28T07:58:20.506Z,4.13
2019-04-28T08:00:29.223Z,3.83
2019-04-28T08:02:34.537Z,4.10
2019-04-28T08:04:39.548Z,3.60
2019-04-28T08:06:44.757Z,3.93
2019-04-28T08:08:49.937Z,3.73
2019-04-28T08:10:55.304Z,2.90
2019-04-28T08:13:00.764Z,3.13
2019-04-28T08:15:06.707Z,3.30
2019-04-28T08:17:11.807Z,2.70
2019-04-28T08:19:16.929Z,2.47
2019-04-28T08:21:22.139Z,2.60
2019-04-28T08:23:27.508Z,2.83
2019-04-28T08:25:32.630Z,2.33
2019-04-28T08:27:38.048Z,2.43
2019-04-28T08:29:43.415Z,2.17
2019-04-28T08:31:58.802Z,2.17
2019-04-28T08:34:06.017Z,2.00
2019-04-28T08:36:11.031Z,2.20
2019-04-28T08:38:16.219Z,1.93
2019-04-28T08:40:21.975Z,2.40
2019-04-28T08:42:28.172Z,2.63
2019-04-28T08:44:33.927Z,2.70
2019-04-28T08:46:39.585Z,2.97
2019-04-28T08:48:44.752Z,2.17
2019-04-28T08:50:49.864Z,1.70
2019-04-28T08:52:55.747Z,2.00
2019-04-28T08:55:01.538Z,1.77
2019-04-28T08:57:06.864Z,2.63
2019-04-28T08:59:12.134Z,2.27
2019-04-28T09:01:17.239Z,2.40
2019-04-28T09:03:22.354Z,2.40
2019-04-28T09:05:27.438Z,2.33
2019-04-28T09:07:32.986Z,2.30
2019-04-28T09:09:38.190Z,2.53
2019-04-28T09:11:43.681Z,2.23
2019-04-28T09:13:49.038Z,2.33
2019-04-28T09:15:54.698Z,2.30
2019-04-28T09:18:00.162Z,1.97
2019-04-28T09:20:05.528Z,1.97
2019-04-28T09:22:10.983Z,1.97
2019-04-28T09:24:16.174Z,2.20
2019-04-28T09:26:21.751Z,2.00
2019-04-28T09:28:27.164Z,2.20
2019-04-28T09:30:32.260Z,2.07
2019-04-28T09:32:37.361Z,2.40
2019-04-28T09:34:43.127Z,2.17
2019-04-28T09:36:48.284Z,1.67
2019-04-28T09:38:53.769Z,2.50
2019-04-28T09:40:59.197Z,2.53
2019-04-28T09:43:18.164Z,2.30
2019-04-28T09:45:29.553Z,2.23
2019-04-28T09:47:34.842Z,2.37
2019-04-28T09:49:40.488Z,2.43
2019-04-28T09:51:45.839Z,2.60
2019-04-28T09:53:51.562Z,2.33
2019-04-28T09:55:56.647Z,1.83
2019-04-28T09:58:01.745Z,1.83
2019-04-28T10:00:08.626Z,1.50
2019-04-28T10:02:13.838Z,2.20
2019-04-28T10:04:19.025Z,2.00
2019-04-28T10:06:25.001Z,2.20
2019-04-28T10:08:31.021Z,1.70
2019-04-28T10:10:36.200Z,1.30
2019-04-28T10:12:41.683Z,1.40
2019-04-28T10:14:47.058Z,2.00
2019-04-28T10:16:52.626Z,1.57
2019-04-28T10:18:58.157Z,1.70
2019-04-28T10:21:03.679Z,1.60
2019-04-28T10:23:09.192Z,1.60
2019-04-28T10:25:15.086Z,1.80
2019-04-28T10:27:20.277Z,1.33
2019-04-28T10:29:25.865Z,1.73
2019-04-28T10:31:31.183Z,3.30
2019-04-28T10:33:37.806Z,2.30
2019-04-28T10:35:43.381Z,1.73
2019-04-28T10:37:48.782Z,1.93
2019-04-28T10:40:01.453Z,1.60
2019-04-28T10:42:07.350Z,1.50
2019-04-28T10:44:12.559Z,1.50
2019-04-28T10:46:17.740Z,1.17
2019-04-28T10:48:22.842Z,1.57
2019-04-28T10:50:28.388Z,1.63
2019-04-28T10:52:34.337Z,1.37
2019-04-28T10:54:39.283Z,1.40
2019-04-28T10:56:44.874Z,1.30
2019-04-28T10:58:51.682Z,1.40
2019-04-28T11:00:56.851Z,1.50
2019-04-28T11:03:02.253Z,1.20
2019-04-28T11:05:15.262Z,1.40
2019-04-28T11:07:20.487Z,1.40
2019-04-28T11:09:35.105Z,1.57
2019-04-28T11:11:40.211Z,1.20
2019-04-28T11:13:45.411Z,1.33
2019-04-28T11:15:51.284Z,1.57
2019-04-28T11:17:56.949Z,1.40
2019-04-28T11:20:01.976Z,1.40
2019-04-28T11:22:07.683Z,1.53
2019-04-28T11:24:13.129Z,1.33
2019-04-28T11:26:18.617Z,1.40
2019-04-28T11:28:24.035Z,1.40
2019-04-28T11:30:30.095Z,1.40
2019-04-28T11:32:35.339Z,1.17
2019-04-28T11:34:47.187Z,0.90
2019-04-28T11:36:52.833Z,0.70
2019-04-28T11:38:58.016Z,0.80
2019-04-28T11:41:03.315Z,0.60
2019-04-28T11:43:08.553Z,0.60
2019-04-28T11:45:14.102Z,0.63
2019-04-28T11:47:20.489Z,0.70
2019-04-28T11:49:25.677Z,0.40
2019-04-28T11:51:30.788Z,0.50
2019-04-28T11:53:35.926Z,0.30
2019-04-28T11:55:41.043Z,0.40
2019-04-28T11:57:46.730Z,0.47
2019-04-28T11:59:54.076Z,0.60
2019-04-28T12:01:59.397Z,0.50
2019-04-28T12:04:06.351Z,0.70
2019-04-28T12:06:11.739Z,0.77
2019-04-28T12:08:17.025Z,1.43
2019-04-28T12:10:26.665Z,1.17
2019-04-28T12:12:42.534Z,1.33
2019-04-28T12:14:57.623Z,0.70
2019-04-28T12:17:28.190Z,0.50
2019-04-28T12:19:43.918Z,0.70
2019-04-28T12:21:49.363Z,0.57
2019-04-28T12:23:54.795Z,0.70
2019-04-28T12:26:00.545Z,0.57
2019-04-28T12:28:05.558Z,0.40
2019-04-28T12:30:11.000Z,0.40
2019-04-28T12:32:16.389Z,0.40
2019-04-28T12:34:21.515Z,0.40
2019-04-28T12:36:26.944Z,0.67
2019-04-28T12:38:32.302Z,0.40
2019-04-28T12:40:37.724Z,0.50
2019-04-28T12:42:42.821Z,0.40
2019-04-28T12:44:48.046Z,0.57
2019-04-28T12:46:53.188Z,0.40
2019-04-28T12:49:01.740Z,0.50
2019-04-28T12:51:06.915Z,0.63
2019-04-28T12:53:12.030Z,0.50
2019-04-28T12:55:17.488Z,0.40
2019-04-28T12:57:22.982Z,0.50
2019-04-28T12:59:34.071Z,0.40
2019-04-28T13:02:04.710Z,0.50
2019-04-28T13:04:18.600Z,0.30
2019-04-28T13:06:23.799Z,0.27
2019-04-28T13:08:29.259Z,0.47
2019-04-28T13:10:35.032Z,0.50
2019-04-28T13:12:41.100Z,0.40
2019-04-28T13:14:46.597Z,0.30
2019-04-28T13:16:51.928Z,0.43
2019-04-28T13:18:57.442Z,0.50
2019-04-28T13:21:02.533Z,0.40
2019-04-28T13:23:07.767Z,0.50
2019-04-28T13:25:13.250Z,0.50
2019-04-28T13:27:18.537Z,0.30
2019-04-28T13:29:24.064Z,0.30
2019-04-28T13:31:29.217Z,0.50
2019-04-28T13:33:34.203Z,0.70
2019-04-28T13:35:39.459Z,0.50
2019-04-28T13:37:44.896Z,0.50
2019-04-28T13:39:55.436Z,0.93
2019-04-28T13:42:01.246Z,4.20
2019-04-28T13:44:08.216Z,9.03
2019-04-28T13:46:13.361Z,1.60
2019-04-28T13:48:18.840Z,0.70
2019-04-28T13:50:36.449Z,0.50
2019-04-28T13:52:42.403Z,0.80
2019-04-28T13:54:49.689Z,0.47
2019-04-28T13:56:54.925Z,0.40
2019-04-28T13:59:14.314Z,0.70
2019-04-28T14:01:56.788Z,0.30
2019-04-28T14:04:27.747Z,0.43
2019-04-28T14:06:34.502Z,0.50
2019-04-28T14:08:39.606Z,0.60
2019-04-28T14:10:45.324Z,0.20
2019-04-28T14:12:50.699Z,0.40
2019-04-28T14:14:55.934Z,0.30
2019-04-28T14:17:00.910Z,0.40
2019-04-28T14:19:06.422Z,0.43
2019-04-28T14:21:11.390Z,0.30
2019-04-28T14:23:16.887Z,0.30
2019-04-28T14:25:21.982Z,0.20
2019-04-28T14:27:27.252Z,0.30
2019-04-28T14:29:32.958Z,0.40
2019-04-28T14:31:38.068Z,0.40
2019-04-28T14:33:43.289Z,0.20
2019-04-28T14:35:48.217Z,0.33
2019-04-28T14:37:53.793Z,0.50
2019-04-28T14:39:58.952Z,0.30
2019-04-28T14:42:04.141Z,0.30
2019-04-28T14:44:09.318Z,0.47
2019-04-28T14:46:14.689Z,0.30
2019-04-28T14:48:19.679Z,0.30
2019-04-28T14:50:24.751Z,0.43
2019-04-28T14:52:30.112Z,0.23
2019-04-28T14:54:35.313Z,0.27
2019-04-28T14:56:40.365Z,0.60
2019-04-28T14:58:46.134Z,0.40
2019-04-28T15:00:56.164Z,0.30
2019-04-28T15:03:06.557Z,0.40
2019-04-28T15:05:45.814Z,0.50
2019-04-28T15:08:15.861Z,0.37
2019-04-28T15:10:33.274Z,0.33
2019-04-28T15:12:38.994Z,0.40
2019-04-28T15:14:44.050Z,0.70
2019-04-28T15:16:49.563Z,0.67
2019-04-28T15:18:54.715Z,0.30
2019-04-28T15:21:00.037Z,0.40
2019-04-28T15:23:05.145Z,0.30
2019-04-28T15:25:10.648Z,0.50
2019-04-28T15:27:16.009Z,0.53
2019-04-28T15:29:21.681Z,0.30
2019-04-28T15:31:26.783Z,1.13
2019-04-28T15:33:31.890Z,0.60
2019-04-28T15:35:37.354Z,0.83
2019-04-28T15:37:42.890Z,0.60
2019-04-28T15:39:48.054Z,0.47
2019-04-28T15:41:53.291Z,0.50
2019-04-28T15:43:58.629Z,1.00
2019-04-28T15:46:04.029Z,1.90
2019-04-28T15:48:09.625Z,1.00
2019-04-28T15:50:15.416Z,1.03
2019-04-28T15:52:21.134Z,0.60
2019-04-28T15:54:26.690Z,0.67
2019-04-28T15:56:44.918Z,0.50
2019-04-28T15:58:50.644Z,0.40
2019-04-28T16:00:56.095Z,0.50
2019-04-28T16:03:01.587Z,0.40
2019-04-28T16:05:07.093Z,0.60
2019-04-28T16:07:24.217Z,0.30
2019-04-28T16:09:19.243Z,0.30
2019-04-28T16:11:24.951Z,0.50
2019-04-28T16:13:30.672Z,0.40
2019-04-28T16:15:35.827Z,0.50
2019-04-28T16:17:41.400Z,0.50
2019-04-28T16:19:47.269Z,0.40
2019-04-28T16:21:52.626Z,0.30
2019-04-28T16:23:58.043Z,0.30
2019-04-28T16:26:03.173Z,0.80
2019-04-28T16:28:08.383Z,1.17
2019-04-28T16:30:13.785Z,3.40
2019-04-28T16:32:19.680Z,1.40
2019-04-28T16:34:25.288Z,4.37
2019-04-28T16:36:30.461Z,1.90
2019-04-28T16:38:35.905Z,0.90
2019-04-28T16:40:41.632Z,3.33
2019-04-28T16:42:47.204Z,1.80
2019-04-28T16:44:52.400Z,0.80
2019-04-28T16:46:57.587Z,0.50
2019-04-28T16:49:02.767Z,0.80
2019-04-28T16:51:07.963Z,0.70
2019-04-28T16:53:13.309Z,1.00
2019-04-28T16:55:22.256Z,0.70
2019-04-28T16:57:37.753Z,0.40
2019-04-28T16:59:48.066Z,0.40
2019-04-28T17:01:57.631Z,0.30
2019-04-28T17:04:02.920Z,0.50
2019-04-28T17:06:08.089Z,0.37
2019-04-28T17:08:13.118Z,0.50
2019-04-28T17:10:18.402Z,0.57
2019-04-28T17:12:23.938Z,0.50
2019-04-28T17:14:29.112Z,0.40
2019-04-28T17:16:34.368Z,1.10
2019-04-28T17:18:39.907Z,0.90
2019-04-28T17:20:45.103Z,0.60
2019-04-28T17:22:50.627Z,0.40
2019-04-28T17:24:56.098Z,0.30
2019-04-28T17:27:01.575Z,0.70
2019-04-28T17:29:06.854Z,0.70
2019-04-28T17:31:13.312Z,0.60
2019-04-28T17:33:19.057Z,0.50
2019-04-28T17:35:24.507Z,0.47
2019-04-28T17:37:29.697Z,0.53
2019-04-28T17:39:35.459Z,0.60
2019-04-28T17:41:40.890Z,0.77
2019-04-28T17:43:47.401Z,0.50
2019-04-28T17:45:52.946Z,0.33
2019-04-28T17:48:02.029Z,0.57
2019-04-28T17:50:07.746Z,0.60
2019-04-28T17:52:14.951Z,0.60
2019-04-28T17:54:20.417Z,1.20
2019-04-28T17:56:25.617Z,0.90
2019-04-28T17:58:31.246Z,1.90
2019-04-28T18:00:58.891Z,2.03
2019-04-28T18:03:14.994Z,0.70
2019-04-28T18:05:28.518Z,1.00
2019-04-28T18:07:35.801Z,0.80
2019-04-28T18:09:41.691Z,0.60
2019-04-28T18:11:47.407Z,0.40
2019-04-28T18:13:52.843Z,0.70
2019-04-28T18:16:16.041Z,0.70
2019-04-28T18:18:26.775Z,0.60
2019-04-28T18:20:32.087Z,0.60
2019-04-28T18:22:37.562Z,0.60
2019-04-28T18:24:43.073Z,0.57
2019-04-28T18:26:48.192Z,0.40
2019-04-28T18:28:53.751Z,0.50
2019-04-28T18:31:18.290Z,0.50
2019-04-28T18:33:41.886Z,0.50
2019-04-28T18:36:02.323Z,0.50
2019-04-28T18:38:35.111Z,0.70
2019-04-28T18:40:55.077Z,0.70
2019-04-28T18:43:10.157Z,0.80
2019-04-28T18:45:16.567Z,0.87
2019-04-28T18:47:21.668Z,1.00
2019-04-28T18:49:26.829Z,0.53
2019-04-28T18:51:33.005Z,0.50
2019-04-28T18:53:38.167Z,0.80
2019-04-28T18:55:43.644Z,0.70
2019-04-28T18:57:48.519Z,0.90
2019-04-28T18:59:53.927Z,0.87
2019-04-28T19:02:09.640Z,0.83
2019-04-28T19:04:14.853Z,0.87
2019-04-28T19:06:20.401Z,0.80
2019-04-28T19:08:48.137Z,0.73
2019-04-28T19:10:50.364Z,0.80
2019-04-28T19:13:01.051Z,0.67
2019-04-28T19:15:24.671Z,0.67
2019-04-28T19:17:42.413Z,0.57
2019-04-28T19:19:48.101Z,0.50
2019-04-28T19:21:57.065Z,0.90
2019-04-28T19:24:02.197Z,0.50
2019-04-28T19:26:07.423Z,0.70
2019-04-28T19:28:12.669Z,0.53
2019-04-28T19:30:18.208Z,0.57
2019-04-28T19:32:23.720Z,0.60
2019-04-28T19:34:28.875Z,0.60
2019-04-28T19:36:34.467Z,1.87
2019-04-28T19:38:39.803Z,0.70
2019-04-28T19:40:44.896Z,0.60
2019-04-28T19:42:50.235Z,0.80
2019-04-28T19:44:55.726Z,0.50
2019-04-28T19:47:01.151Z,0.70
2019-04-28T19:49:06.305Z,0.50
2019-04-28T19:51:11.801Z,1.50
2019-04-28T19:53:17.388Z,0.90
2019-04-28T19:55:30.664Z,0.70
2019-04-28T19:57:42.752Z,0.60
2019-04-28T20:00:05.831Z,0.80
2019-04-28T20:02:10.867Z,1.05
2019-04-28T20:04:16.032Z,0.60
2019-04-28T20:06:21.727Z,1.03
2019-04-28T20:08:27.042Z,0.60
2019-04-28T20:10:32.430Z,1.40
2019-04-28T20:12:38.445Z,0.90
2019-04-28T20:14:43.554Z,0.60
2019-04-28T20:16:49.533Z,0.73
2019-04-28T20:18:55.308Z,0.80
2019-04-28T20:21:00.573Z,0.50
2019-04-28T20:23:05.793Z,0.57
2019-04-28T20:25:11.626Z,0.57
2019-04-28T20:27:16.761Z,0.70
2019-04-28T20:29:23.298Z,0.80
2019-04-28T20:31:28.557Z,0.87
2019-04-28T20:33:33.989Z,0.80
2019-04-28T20:35:43.966Z,0.67
2019-04-28T20:37:55.153Z,0.60
2019-04-28T20:40:04.780Z,0.80
2019-04-28T20:42:27.425Z,0.67
2019-04-28T20:44:32.762Z,0.50
2019-04-28T20:46:37.763Z,0.50
2019-04-28T20:48:42.874Z,0.47
2019-04-28T20:50:48.057Z,0.90
2019-04-28T20:52:53.362Z,0.60
2019-04-28T20:54:58.385Z,0.60
2019-04-28T20:57:03.789Z,0.70
2019-04-28T20:59:09.256Z,1.03
2019-04-28T21:01:15.017Z,0.70
2019-04-28T21:03:20.300Z,0.80
2019-04-28T21:05:25.652Z,1.00
2019-04-28T21:07:31.383Z,0.77
2019-04-28T21:09:36.507Z,0.57
2019-04-28T21:11:42.123Z,0.80
2019-04-28T21:13:47.505Z,0.93
2019-04-28T21:15:52.846Z,0.60
2019-04-28T21:17:58.319Z,0.67
2019-04-28T21:20:03.502Z,0.70
2019-04-28T21:22:08.548Z,0.67
2019-04-28T21:24:16.704Z,0.73
2019-04-28T21:26:21.426Z,0.80
2019-04-28T21:28:26.527Z,0.70
2019-04-28T21:30:31.945Z,0.70
2019-04-28T21:32:38.214Z,0.63
2019-04-28T21:34:43.200Z,0.80
2019-04-28T21:36:48.229Z,0.67
2019-04-28T21:38:53.905Z,0.63
2019-04-28T21:40:59.232Z,0.93
2019-04-28T21:43:19.475Z,1.10
2019-04-28T21:45:43.864Z,0.80
2019-04-28T21:47:49.527Z,0.70
2019-04-28T21:49:54.603Z,0.70
2019-04-28T21:52:00.027Z,0.70
2019-04-28T21:54:05.218Z,0.80
2019-04-28T21:56:10.794Z,1.00
2019-04-28T21:58:16.531Z,0.80
2019-04-28T22:00:27.915Z,0.60
2019-04-28T22:02:33.151Z,1.00
2019-04-28T22:04:38.636Z,0.60
2019-04-28T22:06:44.073Z,1.00
2019-04-28T22:08:49.545Z,0.80
2019-04-28T22:10:54.892Z,0.70
2019-04-28T22:13:00.464Z,0.70
2019-04-28T22:15:05.940Z,0.77
2019-04-28T22:17:11.728Z,0.80
2019-04-28T22:19:17.108Z,0.67
2019-04-28T22:21:22.746Z,0.87
2019-04-28T22:23:44.962Z,0.87
2019-04-28T22:25:50.742Z,0.70
2019-04-28T22:27:55.830Z,1.10
2019-04-28T22:30:04.943Z,0.90
2019-04-28T22:32:09.937Z,0.90
2019-04-28T22:34:17.165Z,0.80
2019-04-28T22:36:22.536Z,0.90
2019-04-28T22:38:28.029Z,0.83
2019-04-28T22:40:33.139Z,0.90
2019-04-28T22:42:38.615Z,0.90
2019-04-28T22:44:44.374Z,1.00
2019-04-28T22:46:49.558Z,1.00
2019-04-28T22:48:56.833Z,0.90
2019-04-28T22:51:01.963Z,0.70
2019-04-28T22:53:07.360Z,1.10
2019-04-28T22:55:17.939Z,1.00
2019-04-28T22:57:30.387Z,0.80
2019-04-28T22:59:39.887Z,0.90
2019-04-28T23:01:48.539Z,0.80
2019-04-28T23:04:06.435Z,1.00
2019-04-28T23:06:11.786Z,0.90
2019-04-28T23:08:17.157Z,0.80
2019-04-28T23:10:22.660Z,1.00
2019-04-28T23:12:28.105Z,1.00
2019-04-28T23:14:33.990Z,0.80
2019-04-28T23:16:39.168Z,1.00
2019-04-28T23:18:44.594Z,1.07
2019-04-28T23:20:51.580Z,0.97
2019-04-28T23:22:59.921Z,1.03
2019-04-28T23:25:06.202Z,1.37
2019-04-28T23:27:11.662Z,1.37
2019-04-28T23:29:16.888Z,1.03
2019-04-28T23:31:22.376Z,1.20
2019-04-28T23:33:27.595Z,1.00
2019-04-28T23:35:34.162Z,1.10
2019-04-28T23:37:40.913Z,1.30
2019-04-28T23:39:46.015Z,1.23
2019-04-28T23:42:02.156Z,1.23
2019-04-28T23:44:07.231Z,1.10
2019-04-28T23:46:12.310Z,1.20
2019-04-28T23:48:17.496Z,1.30
2019-04-28T23:50:29.441Z,1.43
2019-04-28T23:52:56.481Z,0.97
2019-04-28T23:55:03.482Z,1.60
2019-04-28T23:57:08.914Z,1.40
2019-04-28T23:59:14.426Z,0.93
